KC8YVF-1 Weather Reports


Display with metric or nautical units.
time (UTC)temp
F
wind
direction
speed
MPH
gust
MPH
rain 1hr
in
rain 24hr
in
rain mn
in
humidity
%
barometer
mb
20181120080718 27 338 6.0 7.0 0.00 0.00 0.00 82 1002.7
20181120080418 27 0 2.0 6.0 0.00 0.00 0.00 82 1002.7
20181120080219 27 0 6.0 7.0 0.00 0.00 0.00 82 1002.7
20181120075719 27 338 1.0 8.0 0.00 0.00 0.00 82 1002.7
20181120075220 27 338 3.0 6.0 0.00 0.00 0.00 82 1002.7
20181120074919 27 338 2.0 14.0 0.00 0.00 0.00 82 1002.7
20181120074219 28 0 3.0 5.0 0.00 0.00 0.00 82 1002.5
20181120073719 28 0 1.0 6.0 0.00 0.00 0.00 83 1002.7
20181120073419 28 0 7.0 9.0 0.00 0.00 0.00 83 1002.4
20181120072719 28 0 0.0 0.0 0.00 0.00 0.00 83 1002.3
20181120071918 28 0 1.0 5.0 0.00 0.00 0.00 83 1002.3
20181120071719 28 0 2.0 7.0 0.00 0.00 0.00 83 1002.3
20181120071220 29 338 8.0 8.0 0.00 0.00 0.00 83 1002.3
20181120070720 29 338 5.0 7.0 0.00 0.00 0.00 83 1002.3
20181120070419 29 0 1.0 10.0 0.00 0.00 0.00 83 1002.3
20181120065718 29 338 1.0 0.0 0.00 0.00 0.00 83 1002.3
20181120065218 29 338 1.0 3.0 0.00 0.00 0.00 83 1002.3
20181120064918 29 338 2.0 9.0 0.00 0.00 0.00 83 1002.3
20181120064219 29 0 5.0 9.0 0.00 0.00 0.00 83 1002.2
20181120063719 30 338 5.0 10.0 0.00 0.00 0.00 83 1002.0
20181120063420 30 0 3.0 9.0 0.00 0.00 0.00 83 1002.0
20181120063219 30 0 0.0 0.0 0.00 0.00 0.00 83 1002.0
20181120062718 30 0 2.0 6.0 0.00 0.00 0.00 83 1002.0
20181120061919 31 0 1.0 0.0 0.00 0.00 0.00 83 1002.0
20181120061720 31 0 0.0 0.0 0.00 0.00 0.00 83 1002.0
20181120061219 31 338 8.0 12.0 0.00 0.00 0.00 83 1001.6
20181120060719 31 338 1.0 2.0 0.00 0.00 0.00 83 1001.6
20181120060420 31 0 0.0 0.0 0.00 0.00 0.00 83 1001.5
20181120060220 31 338 0.0 0.0 0.00 0.00 0.00 83 1001.6
20181120054919 31 315 0.0 0.0 0.00 0.00 0.00 83 1001.6
20181120054719 31 0 2.0 3.0 0.00 0.00 0.00 83 1001.6
20181120054219 31 0 0.0 0.0 0.00 0.00 0.00 83 1001.6
20181120053420 32 315 6.0 8.0 0.00 0.00 0.00 83 1001.6
20181120052719 32 0 2.0 1.0 0.00 0.00 0.00 83 1001.6
20181120052218 32 315 0.0 0.0 0.00 0.00 0.00 82 1001.5
20181120051918 32 0 1.0 6.0 0.00 0.00 0.00 82 1001.3
20181120051720 32 315 0.0 0.0 0.00 0.00 0.00 82 1001.3
20181120050419 32 338 0.0 0.0 0.00 0.00 0.00 82 1001.3
20181120050220 32 338 0.0 0.0 0.00 0.00 0.00 82 1001.3
20181120045720 32 338 0.0 0.0 0.00 0.00 0.00 82 1001.3
20181120044920 32 338 0.0 0.0 0.00 0.00 0.00 82 1001.3
20181120044719 32 338 0.0 0.0 0.00 0.00 0.00 82 1001.1
20181120043720 32 338 5.0 6.0 0.00 0.00 0.00 82 1001.0
20181120043420 32 338 1.0 5.0 0.00 0.00 0.00 82 1001.0
20181120043219 32 338 0.0 0.0 0.00 0.00 0.00 82 1001.0
20181120042220 32 338 0.0 0.0 0.00 0.00 0.00 82 1001.0
20181120041918 32 315 0.0 0.0 0.00 0.00 0.00 82 1001.0
20181120041719 32 315 0.0 0.0 0.00 0.00 0.00 82 1001.0
20181120041219 32 315 0.0 0.0 0.00 0.00 0.00 82 1001.0
20181120040719 32 338 0.0 0.0 0.00 0.00 0.00 81 1001.0
20181120040419 33 293 0.0 0.0 0.00 0.00 0.00 81 1001.0
20181120035719 33 293 0.0 0.0 0.00 0.00 0.00 81 1001.0
20181120035221 33 315 0.0 0.0 0.00 0.00 0.00 81 1001.0
20181120034919 33 315 0.0 0.0 0.00 0.00 0.00 81 1001.0
20181120034718 33 315 0.0 0.0 0.00 0.00 0.00 81 1001.0
20181120034218 33 315 0.0 0.0 0.00 0.00 0.00 81 1001.0
20181120033419 33 338 0.0 0.0 0.00 0.00 0.00 81 1001.0
20181120033218 33 338 0.0 0.0 0.00 0.00 0.00 81 1001.0
20181120032718 33 338 0.0 0.0 0.00 0.00 0.00 81 1001.0
20181120032220 33 338 0.0 0.0 0.00 0.00 0.00 81 1001.0
20181120031919 33 338 0.0 0.0 0.00 0.00 0.00 81 1001.0
20181120031718 33 338 0.0 0.0 0.00 0.00 0.00 81 1001.0
20181120030720 34 270 0.0 0.0 0.00 0.00 0.00 72 1001.0
20181120030418 34 270 0.0 0.0 0.00 0.00 0.00 72 1001.0
20181120030219 34 270 0.0 0.0 0.00 0.00 0.00 72 1001.0
20181120025719 34 270 0.0 0.0 0.00 0.00 0.00 72 1001.0
20181120024918 34 270 0.0 0.0 0.00 0.00 0.00 72 1000.6
20181120024219 34 270 0.0 0.0 0.00 0.00 0.00 72 1000.6
20181120023721 34 270 0.0 0.0 0.00 0.00 0.00 72 1000.6
20181120023420 34 270 0.0 0.0 0.00 0.00 0.00 72 1000.6
20181120023218 34 270 0.0 0.0 0.00 0.00 0.00 72 1000.6
20181120022718 34 270 0.0 0.0 0.00 0.00 0.00 72 1000.6
20181120022219 34 270 0.0 0.0 0.00 0.00 0.00 72 1000.8
20181120021920 34 270 0.0 0.0 0.00 0.00 0.00 72 1000.7
20181120021720 34 270 0.0 0.0 0.00 0.00 0.00 72 1000.6
20181120020418 34 270 0.0 0.0 0.00 0.00 0.00 72 1000.6
20181120020222 34 270 0.0 0.0 0.00 0.00 0.00 72 1000.7
20181120015719 34 270 0.0 0.0 0.00 0.00 0.00 72 1000.6
20181120015219 34 270 0.0 0.0 0.00 0.00 0.00 72 1000.6
20181120014920 34 270 0.0 0.0 0.00 0.00 0.00 72 1000.6
20181120014218 34 270 0.0 0.0 0.00 0.00 0.00 72 1000.6
20181120013720 34 270 0.0 0.0 0.00 0.00 0.00 72 1000.4
20181120013418 34 270 0.0 0.0 0.00 0.00 0.00 72 1000.4
20181120013219 34 270 0.0 0.0 0.00 0.00 0.00 72 1000.6
20181120012718 34 270 0.0 0.0 0.00 0.00 0.00 72 1000.4
20181120011919 34 270 0.0 0.0 0.00 0.00 0.00 72 1000.6
20181120011719 34 270 0.0 0.0 0.00 0.00 0.00 72 1000.6
20181120011219 34 270 0.0 0.0 0.00 0.00 0.00 72 1000.3
20181120010719 34 270 0.0 0.0 0.00 0.00 0.00 72 1000.3
20181120010419 34 270 0.0 0.0 0.00 0.00 0.00 72 1000.3
20181120010218 34 270 0.0 0.0 0.00 0.00 0.00 72 1000.4
20181120005718 34 270 0.0 0.0 0.00 0.00 0.00 72 1000.3
20181120005218 34 270 0.0 0.0 0.00 0.00 0.00 72 1000.3
20181120004920 34 270 0.0 0.0 0.00 0.00 0.00 72 1000.6
20181120004719 34 270 0.0 0.0 0.00 0.00 0.00 72 1000.6
20181120004220 34 270 0.0 0.0 0.00 0.00 0.00 72 1000.6
20181120003720 34 270 0.0 0.0 0.00 0.00 0.00 72 1000.3
20181120003421 34 270 0.0 0.0 0.00 0.00 0.00 72 1000.3
20181120002719 34 270 0.0 0.0 0.00 0.00 0.00 72 1000.3
20181120001919 34 270 0.0 0.0 0.00 0.00 0.00 72 1000.3
20181120001720 34 270 0.0 0.0 0.00 0.00 0.00 72 1000.4
20181120000722 34 270 0.0 0.0 0.00 0.00 0.00 72 1000.3
20181120000421 34 270 0.0 0.0 0.00 0.00 0.00 72 1000.3
20181120000219 34 270 0.0 0.0 0.00 0.00 0.00 72 1000.3
20181119235719 34 270 0.0 0.0 0.00 0.00 0.00 72 1000.3
20181119235219 34 270 0.0 0.0 0.00 0.00 0.00 72 1000.3
20181119234919 34 270 0.0 0.0 0.00 0.00 0.00 72 1000.3
20181119234719 34 270 0.0 0.0 0.00 0.00 0.00 72 1000.3
20181119234221 34 270 0.0 0.0 0.00 0.00 0.00 72 1000.3
20181119233719 34 270 0.0 0.0 0.00 0.00 0.00 72 1000.3
20181119233420 34 270 0.0 0.0 0.00 0.00 0.00 72 1000.3
20181119233218 34 270 0.0 0.0 0.00 0.00 0.00 72 1000.0
20181119232719 34 270 0.0 0.0 0.00 0.00 0.00 72 1000.3
20181119231920 34 270 0.0 0.0 0.00 0.00 0.00 72 1000.0
20181119231719 34 270 0.0 0.0 0.00 0.00 0.00 72 1000.0
20181119231219 34 270 0.0 0.0 0.00 0.00 0.00 72 1000.1
20181119230720 34 270 0.0 0.0 0.00 0.00 0.00 72 1000.3
20181119230421 34 270 0.0 0.0 0.00 0.00 0.00 72 1000.3
20181119225719 34 270 0.0 0.0 0.00 0.00 0.00 72 1000.3
20181119224920 34 270 0.0 0.0 0.00 0.00 0.00 72 1000.2
20181119223719 34 270 0.0 0.0 0.00 0.00 0.00 72 1000.3
20181119223420 34 270 0.0 0.0 0.00 0.00 0.00 72 1000.3
20181119223219 34 270 0.0 0.0 0.00 0.00 0.00 72 1000.3
20181119222720 34 270 0.0 0.0 0.00 0.00 0.00 72 1000.0
20181119222219 34 270 0.0 0.0 0.00 0.00 0.00 72 1000.0
20181119221920 34 270 0.0 0.0 0.00 0.00 0.00 72 1000.0
20181119221718 34 270 0.0 0.0 0.00 0.00 0.00 72 1000.0
20181119221218 34 270 0.0 0.0 0.00 0.00 0.00 72 1000.0
20181119220718 34 270 0.0 0.0 0.00 0.00 0.00 72 1000.0
20181119220420 34 270 0.0 0.0 0.00 0.00 0.00 72 1000.0
20181119220218 34 270 0.0 0.0 0.00 0.00 0.00 72 1000.0
20181119215718 34 270 0.0 0.0 0.00 0.00 0.00 72 1000.0
20181119215218 34 270 0.0 0.0 0.00 0.00 0.00 72 1000.0
20181119214919 34 270 0.0 0.0 0.00 0.00 0.00 72 1000.0
20181119214722 34 270 0.0 0.0 0.00 0.00 0.00 72 1000.0
20181119214220 34 270 0.0 0.0 0.00 0.00 0.00 72 1000.0
20181119213719 34 270 0.0 0.0 0.00 0.00 0.00 72 999.9
20181119213420 34 270 0.0 0.0 0.00 0.00 0.00 72 999.7
20181119213219 34 270 0.0 0.0 0.00 0.00 0.00 72 999.6
20181119212220 34 270 0.0 0.0 0.00 0.00 0.00 72 999.9
20181119211921 34 270 0.0 0.0 0.00 0.00 0.00 72 999.7
20181119211718 34 270 0.0 0.0 0.00 0.00 0.00 72 999.6
20181119211218 34 270 0.0 0.0 0.00 0.00 0.00 72 999.6
20181119210419 34 270 0.0 0.0 0.00 0.00 0.00 72 999.6
20181119210220 34 270 0.0 0.0 0.00 0.00 0.00 72 999.6
20181119205720 34 270 0.0 0.0 0.00 0.00 0.00 72 999.6
20181119205218 34 270 0.0 0.0 0.00 0.00 0.00 72 999.6
20181119204919 34 270 0.0 0.0 0.00 0.00 0.00 72 999.6
20181119204220 34 270 0.0 0.0 0.00 0.00 0.00 72 999.6
20181119203719 34 270 0.0 0.0 0.00 0.00 0.00 72 999.8
20181119203419 34 270 0.0 0.0 0.00 0.00 0.00 72 999.6
20181119203221 34 270 0.0 0.0 0.00 0.00 0.00 72 999.6
20181119202720 34 270 0.0 0.0 0.00 0.00 0.00 72 999.9
20181119201918 34 270 0.0 0.0 0.00 0.00 0.00 72 1000.0
20181119201719 34 270 0.0 0.0 0.00 0.00 0.00 72 1000.0
20181119201220 34 270 0.0 0.0 0.00 0.00 0.00 72 999.6
20181119200419 34 270 0.0 0.0 0.00 0.00 0.00 72 1000.0
20181119200218 34 270 0.0 0.0 0.00 0.00 0.00 72 1000.0
20181119195720 34 270 0.0 0.0 0.00 0.00 0.00 72 1000.0
20181119195220 34 270 0.0 0.0 0.00 0.00 0.00 72 1000.0
20181119194918 34 270 0.0 0.0 0.00 0.00 0.00 72 1000.0
20181119194719 34 270 0.0 0.0 0.00 0.00 0.00 72 1000.0
20181119194219 34 270 0.0 0.0 0.00 0.00 0.00 72 1000.0
20181119193719 34 270 0.0 0.0 0.00 0.00 0.00 72 1000.0
20181119193419 34 270 0.0 0.0 0.00 0.00 0.00 72 1000.0
20181119193219 34 270 0.0 0.0 0.00 0.00 0.00 72 1000.0
20181119192219 34 270 0.0 0.0 0.00 0.00 0.00 72 1000.0
20181119191920 34 270 0.0 0.0 0.00 0.00 0.00 72 1000.0
20181119191720 34 270 0.0 0.0 0.00 0.00 0.00 72 1000.0
20181119190419 34 270 0.0 0.0 0.00 0.00 0.00 72 1000.0
20181119190219 34 270 0.0 0.0 0.00 0.00 0.00 72 1000.0
20181119185719 34 270 0.0 0.0 0.00 0.00 0.00 72 1000.0
20181119185220 34 270 0.0 0.0 0.00 0.00 0.00 72 1000.0
20181119184920 34 270 0.0 0.0 0.00 0.00 0.00 72 1000.0
20181119184219 34 270 0.0 0.0 0.00 0.00 0.00 72 1000.2
20181119183719 34 270 0.0 0.0 0.00 0.00 0.00 72 1000.3
20181119183418 34 270 0.0 0.0 0.00 0.00 0.00 72 1000.3
20181119183219 34 270 0.0 0.0 0.00 0.00 0.00 72 1000.3
20181119182719 34 270 0.0 0.0 0.00 0.00 0.00 72 1000.4
20181119181920 34 270 0.0 0.0 0.00 0.00 0.00 72 1000.6
20181119181718 34 270 0.0 0.0 0.00 0.00 0.00 72 1000.5
20181119181218 34 270 0.0 0.0 0.00 0.00 0.00 72 1000.6
20181119180720 34 270 0.0 0.0 0.00 0.00 0.00 72 1000.6
20181119180419 34 270 0.0 0.0 0.00 0.00 0.00 72 1000.6
20181119175719 34 270 0.0 0.0 0.00 0.00 0.00 72 1000.6
20181119175219 34 270 0.0 0.0 0.00 0.00 0.00 72 1000.6
20181119174920 34 270 0.0 0.0 0.00 0.00 0.00 72 1000.6
20181119174218 34 270 0.0 0.0 0.00 0.00 0.00 72 1000.6
20181119173420 34 270 0.0 0.0 0.00 0.00 0.00 72 1000.6
20181119173219 34 270 0.0 0.0 0.00 0.00 0.00 72 1000.6
20181119172719 34 270 0.0 0.0 0.00 0.00 0.00 72 1000.6
20181119172218 34 270 0.0 0.0 0.00 0.00 0.00 72 1000.7
20181119171919 34 270 0.0 0.0 0.00 0.00 0.00 72 1000.9
20181119171220 34 270 0.0 0.0 0.00 0.00 0.00 72 1001.0
20181119170421 34 270 0.0 0.0 0.00 0.00 0.00 72 1001.3
20181119170219 34 270 0.0 0.0 0.00 0.00 0.00 72 1001.3
20181119165719 34 270 0.0 0.0 0.00 0.00 0.00 72 1001.3
20181119165219 34 270 0.0 0.0 0.00 0.00 0.00 72 1001.4
20181119164921 34 270 0.0 0.0 0.00 0.00 0.00 72 1001.4
20181119164720 34 270 0.0 0.0 0.00 0.00 0.00 72 1001.3
20181119164220 34 270 0.0 0.0 0.00 0.00 0.00 72 1001.5
20181119163720 34 270 0.0 0.0 0.00 0.00 0.00 72 1001.6
20181119163420 34 270 0.0 0.0 0.00 0.00 0.00 72 1001.6
20181119163219 34 270 0.0 0.0 0.00 0.00 0.00 72 1001.6
20181119162219 34 270 0.0 0.0 0.00 0.00 0.00 72 1002.0
20181119161920 34 270 0.0 0.0 0.00 0.00 0.00 72 1002.0
20181119161720 34 270 0.0 0.0 0.00 0.00 0.00 72 1002.0
20181119161220 34 270 0.0 0.0 0.00 0.00 0.00 72 1002.0
20181119160421 34 270 0.0 0.0 0.00 0.00 0.00 72 1002.3
20181119155219 34 270 0.0 0.0 0.00 0.00 0.00 72 1002.2
20181119154920 34 270 0.0 0.0 0.00 0.00 0.00 72 1002.3
20181119154718 34 270 0.0 0.0 0.00 0.00 0.00 72 1002.3
20181119153720 34 270 0.0 0.0 0.00 0.00 0.00 72 1002.3
20181119153420 34 270 0.0 0.0 0.00 0.00 0.00 72 1002.3
20181119152719 34 270 0.0 0.0 0.00 0.00 0.00 72 1002.3
20181119152226 34 270 0.0 0.0 0.00 0.00 0.00 72 1002.1
20181119151923 34 270 0.0 0.0 0.00 0.00 0.00 72 1002.3
20181119151218 34 270 0.0 0.0 0.00 0.00 0.00 72 1002.3
20181119150720 34 270 0.0 0.0 0.00 0.00 0.00 72 1002.3
20181119150419 34 270 0.0 0.0 0.00 0.00 0.00 72 1002.3
20181119145719 34 270 0.0 0.0 0.00 0.00 0.00 72 1002.3
20181119144919 34 270 0.0 0.0 0.00 0.00 0.00 72 1002.3
20181119144719 34 270 0.0 0.0 0.00 0.00 0.00 72 1002.3
20181119144219 34 270 0.0 0.0 0.00 0.00 0.00 72 1002.3
20181119143719 34 270 0.0 0.0 0.00 0.00 0.00 72 1002.3
20181119143420 34 270 0.0 0.0 0.00 0.00 0.00 72 1002.3
20181119143222 34 270 0.0 0.0 0.00 0.00 0.00 72 1002.4
20181119142719 34 270 0.0 0.0 0.00 0.00 0.00 72 1002.7
20181119141920 34 270 0.0 0.0 0.00 0.00 0.00 72 1002.7
20181119141719 34 270 0.0 0.0 0.00 0.00 0.00 72 1002.7
20181119141218 34 270 0.0 0.0 0.00 0.00 0.00 72 1002.7
20181119140420 34 270 0.0 0.0 0.00 0.00 0.00 72 1002.7
20181119134919 34 270 0.0 0.0 0.00 0.00 0.00 72 1002.3
20181119134219 34 270 0.0 0.0 0.00 0.00 0.00 72 1002.3
20181119133718 34 270 0.0 0.0 0.00 0.00 0.00 72 1002.7
20181119133419 34 270 0.0 0.0 0.00 0.00 0.00 72 1002.7
20181119133220 34 270 0.0 0.0 0.00 0.00 0.00 72 1002.6
20181119132720 34 270 0.0 0.0 0.00 0.00 0.00 72 1002.7
20181119131921 34 270 0.0 0.0 0.00 0.00 0.00 72 1002.3
20181119131719 34 270 0.0 0.0 0.00 0.00 0.00 72 1002.3
20181119131219 34 270 0.0 0.0 0.00 0.00 0.00 72 1002.3
20181119130719 34 270 0.0 0.0 0.00 0.00 0.00 72 1002.3
20181119130420 34 270 0.0 0.0 0.00 0.00 0.00 72 1002.3
20181119124919 34 270 0.0 0.0 0.00 0.00 0.00 72 1002.5
20181119123719 34 270 0.0 0.0 0.00 0.00 0.00 72 1002.3
20181119123420 34 270 0.0 0.0 0.00 0.00 0.00 72 1002.7
20181119123220 34 270 0.0 0.0 0.00 0.00 0.00 72 1002.4
20181119122219 34 270 0.0 0.0 0.00 0.00 0.00 72 1002.7
20181119121921 34 270 0.0 0.0 0.00 0.00 0.00 72 1002.7
20181119120719 34 270 0.0 0.0 0.00 0.00 0.00 72 1002.7
20181119120419 34 270 0.0 0.0 0.00 0.00 0.00 72 1002.7
20181119115720 34 270 0.0 0.0 0.00 0.00 0.00 72 1002.7
20181119115220 34 270 0.0 0.0 0.00 0.00 0.00 72 1002.7
20181119114922 34 270 0.0 0.0 0.00 0.00 0.00 72 1002.7
20181119113419 34 270 0.0 0.0 0.00 0.00 0.00 72 1002.9
20181119113220 34 270 0.0 0.0 0.00 0.00 0.00 72 1002.9
20181119112220 34 270 0.0 0.0 0.00 0.00 0.00 72 1002.7
20181119111920 34 270 0.0 0.0 0.00 0.00 0.00 72 1002.7
20181119110420 34 270 0.0 0.0 0.00 0.00 0.00 72 1002.8
20181119104919 34 270 0.0 0.0 0.00 0.00 0.00 72 1002.8
20181119104719 34 270 0.0 0.0 0.00 0.00 0.00 72 1002.8
20181119103420 34 270 0.0 0.0 0.00 0.00 0.00 72 1002.7
20181119102220 34 270 0.0 0.0 0.00 0.00 0.00 72 1002.7
20181119101921 34 270 0.0 0.0 0.00 0.00 0.00 72 1002.7
20181119101719 34 270 0.0 0.0 0.00 0.00 0.00 72 1002.7
20181119100719 34 270 0.0 0.0 0.00 0.00 0.00 72 1003.0
20181119100420 34 270 0.0 0.0 0.00 0.00 0.00 72 1003.0
20181119095720 34 270 0.0 0.0 0.00 0.00 0.00 72 1003.0
20181119094919 34 270 0.0 0.0 0.00 0.00 0.00 72 1002.7
20181119094720 34 270 0.0 0.0 0.00 0.00 0.00 72 1002.7
20181119094220 34 270 0.0 0.0 0.00 0.00 0.00 72 1002.7
20181119093421 34 270 0.0 0.0 0.00 0.00 0.00 72 1003.0
20181119092220 34 270 0.0 0.0 0.00 0.00 0.00 72 1002.9
20181119091918 34 270 0.0 0.0 0.00 0.00 0.00 72 1002.7
20181119091719 34 270 0.0 0.0 0.00 0.00 0.00 72 1002.7
20181119090719 34 270 0.0 0.0 0.00 0.00 0.00 72 1002.7
20181119090419 34 270 0.0 0.0 0.00 0.00 0.00 72 1002.7
20181119084919 34 270 0.0 0.0 0.00 0.00 0.00 72 1003.0
20181119083420 34 270 0.0 0.0 0.00 0.00 0.00 72 1003.3
20181119083220 34 270 0.0 0.0 0.00 0.00 0.00 72 1003.3
20181119081922 34 270 0.0 0.0 0.00 0.00 0.00 72 1003.3
20181119081218 34 270 0.0 0.0 0.00 0.00 0.00 72 1003.7